createdAt,value
2017-09-19T00:00:28.521Z,71.84
2017-09-19T00:01:38.876Z,71.75
2017-09-19T00:02:48.902Z,71.94
2017-09-19T00:03:58.959Z,72.32
2017-09-19T00:05:08.974Z,72.32
2017-09-19T00:06:19.322Z,71.94
2017-09-19T00:07:29.674Z,71.75
2017-09-19T00:08:40.026Z,71.66
2017-09-19T00:09:51.295Z,71.84
2017-09-19T00:11:01.656Z,71.84
2017-09-19T00:12:11.690Z,71.66
2017-09-19T00:13:22.031Z,71.66
2017-09-19T00:14:32.365Z,71.37
2017-09-19T00:15:42.402Z,71.17
2017-09-19T00:16:52.429Z,71.17
2017-09-19T00:18:02.457Z,71.17
2017-09-19T00:19:12.806Z,71.17
2017-09-19T00:20:23.153Z,71.37
2017-09-19T00:21:33.176Z,71.66
2017-09-19T00:22:43.513Z,71.75
2017-09-19T00:23:53.853Z,71.66
2017-09-19T00:25:03.555Z,71.66
2017-09-19T00:26:13.582Z,72.32
2017-09-19T00:27:23.614Z,72.32
2017-09-19T00:28:33.640Z,72.32
2017-09-19T00:29:43.655Z,72.42
2017-09-19T00:30:54.003Z,72.32
2017-09-19T00:32:04.355Z,71.84
2017-09-19T00:33:14.462Z,72.32
2017-09-19T00:34:24.786Z,72.32
2017-09-19T00:35:35.148Z,71.75
2017-09-19T00:36:45.484Z,71.84
2017-09-19T00:37:55.839Z,71.66
2017-09-19T00:39:06.242Z,72.32
2017-09-19T00:40:18.223Z,72.32
2017-09-19T00:41:28.240Z,71.84
2017-09-19T00:42:38.266Z,71.91
2017-09-19T00:43:51.427Z,71.94
2017-09-19T00:45:01.777Z,72.42
2017-09-19T00:46:12.130Z,72.32
2017-09-19T00:47:22.460Z,72.32
2017-09-19T00:48:32.489Z,72.42
2017-09-19T00:49:42.514Z,72.23
2017-09-19T00:50:52.846Z,72.13
2017-09-19T00:52:03.181Z,72.03
2017-09-19T00:53:13.519Z,71.94
2017-09-19T00:54:23.530Z,71.94
2017-09-19T00:55:33.868Z,72.03
2017-09-19T00:56:43.943Z,72.03
2017-09-19T00:57:53.641Z,72.23
2017-09-19T00:59:03.987Z,72.23
2017-09-19T01:00:14.335Z,72.23
2017-09-19T01:01:24.040Z,72.03
2017-09-19T01:02:34.437Z,72.03
2017-09-19T01:03:44.792Z,72.13
2017-09-19T01:04:55.135Z,71.94
2017-09-19T01:06:05.482Z,71.94
2017-09-19T01:07:15.826Z,72.23
2017-09-19T01:08:26.175Z,72.32
2017-09-19T01:09:36.519Z,71.75
2017-09-19T01:10:46.881Z,71.75
2017-09-19T01:11:57.220Z,71.75
2017-09-19T01:13:07.558Z,72.23
2017-09-19T01:14:17.899Z,72.42
2017-09-19T01:15:28.241Z,71.94
2017-09-19T01:16:38.592Z,72.32
2017-09-19T01:17:48.929Z,71.94
2017-09-19T01:18:58.633Z,72.03
2017-09-19T01:20:08.973Z,72.13
2017-09-19T01:21:19.314Z,71.75
2017-09-19T01:22:29.643Z,71.75
2017-09-19T01:23:39.666Z,71.75
2017-09-19T01:24:49.685Z,72.03
2017-09-19T01:26:00.089Z,71.84
2017-09-19T01:27:10.464Z,71.75
2017-09-19T01:28:20.812Z,72.23
2017-09-19T01:29:31.152Z,71.94
2017-09-19T01:30:41.495Z,71.75
2017-09-19T01:31:51.832Z,71.94
2017-09-19T01:33:02.164Z,72.03
2017-09-19T01:34:12.516Z,72.03
2017-09-19T01:35:22.841Z,72.03
2017-09-19T01:36:33.192Z,72.42
2017-09-19T01:37:43.520Z,72.52
2017-09-19T01:38:53.841Z,72.03
2017-09-19T01:40:04.205Z,72.32
2017-09-19T01:41:14.535Z,72.32
2017-09-19T01:42:24.875Z,72.23
2017-09-19T01:43:34.898Z,72.52
2017-09-19T01:44:45.245Z,72.23
2017-09-19T01:45:55.275Z,72.52
2017-09-19T01:47:05.615Z,72.29
2017-09-19T01:48:15.965Z,72.32
2017-09-19T01:49:26.370Z,72.32
2017-09-19T01:50:36.382Z,71.84
2017-09-19T01:51:46.720Z,71.84
2017-09-19T01:52:57.049Z,72.03
2017-09-19T01:54:07.386Z,71.94
2017-09-19T01:55:17.396Z,72.52
2017-09-19T01:56:26.782Z,72.42
2017-09-19T01:57:37.119Z,72.29
2017-09-19T01:58:47.143Z,72.23
2017-09-19T01:59:57.492Z,72.38
2017-09-19T02:01:07.825Z,72.03
2017-09-19T02:02:18.171Z,72.03
2017-09-19T02:03:28.534Z,71.91
2017-09-19T02:04:38.872Z,71.75
2017-09-19T02:05:48.901Z,71.71
2017-09-19T02:06:59.291Z,72.03
2017-09-19T02:08:12.941Z,71.75
2017-09-19T02:09:25.408Z,71.66
2017-09-19T02:10:35.752Z,72.03
2017-09-19T02:11:46.092Z,71.94
2017-09-19T02:12:55.792Z,72.13
2017-09-19T02:14:06.131Z,72.23
2017-09-19T02:15:16.476Z,72.42
2017-09-19T02:16:26.829Z,72
2017-09-19T02:17:37.170Z,72.42
2017-09-19T02:18:47.561Z,72.38
2017-09-19T02:19:57.578Z,72
2017-09-19T02:21:07.912Z,71.94
2017-09-19T02:22:18.258Z,72.03
2017-09-19T02:23:28.274Z,71.84
2017-09-19T02:24:38.026Z,71.94
2017-09-19T02:25:48.373Z,71.71
2017-09-19T02:26:58.722Z,72.29
2017-09-19T02:28:09.067Z,71.71
2017-09-19T02:29:19.427Z,72
2017-09-19T02:30:29.814Z,71.81
2017-09-19T02:31:39.845Z,72
2017-09-19T02:32:50.181Z,72
2017-09-19T02:34:00.515Z,71.62
2017-09-19T02:35:10.856Z,71.71
2017-09-19T02:36:21.252Z,72
2017-09-19T02:37:31.594Z,72
2017-09-19T02:38:41.948Z,71.91
2017-09-19T02:39:51.973Z,71.91
2017-09-19T02:41:02.306Z,71.91
2017-09-19T02:42:12.658Z,72
2017-09-19T02:43:23.021Z,72.09
2017-09-19T02:44:33.360Z,71.91
2017-09-19T02:45:43.697Z,72
2017-09-19T02:46:55.931Z,71.62
2017-09-19T02:48:06.292Z,72.19
2017-09-19T02:49:16.658Z,71.91
2017-09-19T02:50:27.010Z,72
2017-09-19T02:51:37.345Z,72
2017-09-19T02:52:47.055Z,72.09
2017-09-19T02:53:57.461Z,71.91
2017-09-19T02:55:07.491Z,72
2017-09-19T02:56:17.836Z,71.71
2017-09-19T02:57:27.860Z,72
2017-09-19T02:58:38.217Z,71.81
2017-09-19T02:59:48.555Z,72
2017-09-19T03:00:58.902Z,72
2017-09-19T03:02:09.241Z,72.09
2017-09-19T03:33:42.264Z,68.48
2017-09-19T03:34:52.613Z,69.21
2017-09-19T03:36:02.962Z,69.62
2017-09-19T03:37:13.289Z,70.36
2017-09-19T03:38:23.621Z,71.44
2017-09-19T03:39:33.650Z,71.44
2017-09-19T03:40:43.666Z,72.11
2017-09-19T03:41:53.673Z,72.11
2017-09-19T03:43:04.009Z,72.49
2017-09-19T03:44:14.034Z,72.49
2017-09-19T03:45:24.427Z,72.43
2017-09-19T03:46:34.774Z,72.33
2017-09-19T03:47:44.496Z,72.33
2017-09-19T03:48:54.827Z,72.56
2017-09-19T03:50:05.174Z,72.75
2017-09-19T03:51:15.565Z,72.56
2017-09-19T03:52:25.900Z,72.37
2017-09-19T03:53:36.236Z,72.28
2017-09-19T03:54:45.952Z,72.47
2017-09-19T03:55:56.297Z,72.37
2017-09-19T03:57:06.325Z,72.41
2017-09-19T03:58:16.682Z,72.5
2017-09-19T03:59:27.025Z,72.22
2017-09-19T04:00:37.356Z,72.12
2017-09-19T04:01:47.072Z,71.93
2017-09-19T04:02:57.446Z,71.93
2017-09-19T04:04:07.799Z,72.02
2017-09-19T04:05:17.827Z,72.22
2017-09-19T04:06:28.175Z,72.22
2017-09-19T04:07:38.203Z,72.12
2017-09-19T04:08:48.601Z,72.12
2017-09-19T04:09:58.929Z,72.41
2017-09-19T04:11:09.278Z,71.93
2017-09-19T04:12:19.298Z,72.41
2017-09-19T04:13:29.640Z,72.41
2017-09-19T04:14:39.666Z,72.41
2017-09-19T04:15:50.018Z,71.93
2017-09-19T04:17:00.361Z,72.02
2017-09-19T04:18:10.688Z,72.41
2017-09-19T04:19:20.729Z,72.22
2017-09-19T04:20:30.748Z,72.31
2017-09-19T04:21:41.094Z,72.31
2017-09-19T04:22:51.444Z,71.97
2017-09-19T04:24:01.774Z,72.22
2017-09-19T04:25:11.797Z,72.22
2017-09-19T04:26:22.186Z,72.12
2017-09-19T04:27:32.538Z,72.12
2017-09-19T04:28:42.865Z,72.41
2017-09-19T04:29:53.219Z,72.41
2017-09-19T04:31:03.262Z,72.31
2017-09-19T04:32:13.655Z,71.73
2017-09-19T04:33:24.002Z,71.93
2017-09-19T04:34:34.031Z,71.55
2017-09-19T04:35:44.365Z,71.64
2017-09-19T04:36:54.696Z,71.45
2017-09-19T04:38:05.034Z,71.97
2017-09-19T04:39:15.375Z,71.97
2017-09-19T04:40:25.720Z,71.73
2017-09-19T04:41:35.735Z,71.68
2017-09-19T04:42:45.447Z,71.64
2017-09-19T04:43:55.860Z,71.55
2017-09-19T04:45:06.198Z,71.77
2017-09-19T04:46:16.540Z,71.64
2017-09-19T04:47:26.569Z,71.93
2017-09-19T04:48:36.898Z,71.73
2017-09-19T04:49:47.278Z,71.97
2017-09-19T04:51:00.679Z,72.22
2017-09-19T04:52:11.008Z,72.12
2017-09-19T04:53:21.363Z,72.5
2017-09-19T04:54:31.714Z,72.41
2017-09-19T04:55:42.069Z,72.12
2017-09-19T04:56:52.120Z,72.12
2017-09-19T04:58:02.156Z,72.41
2017-09-19T04:59:12.514Z,72.41
2017-09-19T05:00:22.867Z,72.12
2017-09-19T05:01:32.896Z,72.41
2017-09-19T05:02:43.247Z,72.41
2017-09-19T05:03:53.579Z,72.5
2017-09-19T05:05:03.608Z,72.41
2017-09-19T05:06:13.966Z,71.93
2017-09-19T05:07:24.371Z,72.12
2017-09-19T05:08:34.719Z,72.31
2017-09-19T05:09:45.075Z,72.31
2017-09-19T05:10:55.432Z,71.93
2017-09-19T05:12:05.803Z,71.77
2017-09-19T05:13:16.151Z,71.73
2017-09-19T05:14:26.522Z,71.83
2017-09-19T05:15:36.875Z,71.55
2017-09-19T05:16:47.238Z,71.64
2017-09-19T05:17:57.583Z,71.55
2017-09-19T05:19:07.923Z,71.64
2017-09-19T05:20:17.960Z,71.73
2017-09-19T05:21:27.985Z,71.83
2017-09-19T05:22:38.333Z,72.22
2017-09-19T05:23:48.367Z,72.12
2017-09-19T05:24:58.402Z,72.31
2017-09-19T05:26:08.472Z,72.31
2017-09-19T05:27:18.792Z,72.5
2017-09-19T05:28:29.139Z,72.41
2017-09-19T05:29:39.185Z,72.31
2017-09-19T05:30:48.908Z,72.22
2017-09-19T05:31:59.251Z,72.31
2017-09-19T05:33:09.592Z,72.12
2017-09-19T05:34:19.612Z,72.08
2017-09-19T05:35:29.968Z,72.18
2017-09-19T05:36:39.981Z,72.28
2017-09-19T05:37:50.331Z,71.8
2017-09-19T05:39:00.659Z,71.8
2017-09-19T05:40:11.004Z,71.7
2017-09-19T05:41:21.360Z,71.7
2017-09-19T05:42:31.444Z,71.89
2017-09-19T05:43:42.911Z,71.89
2017-09-19T05:44:53.243Z,71.99
2017-09-19T05:46:03.275Z,71.89
2017-09-19T05:47:13.277Z,71.8
2017-09-19T05:48:23.313Z,71.99
2017-09-19T05:49:33.024Z,71.99
2017-09-19T05:50:43.357Z,71.89
2017-09-19T05:51:55.303Z,71.61
2017-09-19T05:53:05.935Z,71.8
2017-09-19T05:54:18.377Z,71.89
2017-09-19T05:55:28.710Z,71.89
2017-09-19T05:56:39.040Z,71.8
2017-09-19T05:57:49.062Z,71.8
2017-09-19T05:58:59.396Z,71.89
2017-09-19T06:00:09.750Z,71.8
2017-09-19T06:01:20.087Z,71.89
2017-09-19T06:02:29.840Z,71.89
2017-09-19T06:03:40.205Z,71.99
2017-09-19T06:04:50.540Z,72.37
2017-09-19T06:06:00.884Z,72.37
2017-09-19T06:07:12.425Z,72.37
2017-09-19T06:08:22.778Z,71.89
2017-09-19T06:09:33.136Z,71.61
2017-09-19T06:10:43.457Z,71.7
2017-09-19T06:11:53.480Z,71.61
2017-09-19T06:13:03.829Z,71.61
2017-09-19T06:14:14.179Z,71.61
2017-09-19T06:15:24.196Z,71.89
2017-09-19T06:16:34.222Z,71.89
2017-09-19T06:17:44.248Z,71.61
2017-09-19T06:18:54.271Z,71.89
2017-09-19T06:20:04.651Z,71.86
2017-09-19T06:21:14.977Z,72.18
2017-09-19T06:22:25.320Z,71.8
2017-09-19T06:23:35.332Z,71.7
2017-09-19T06:24:45.668Z,71.51
2017-09-19T06:25:55.689Z,71.89
2017-09-19T06:27:05.717Z,71.7
2017-09-19T06:28:16.048Z,71.89
2017-09-19T06:29:25.752Z,71.99
2017-09-19T06:30:36.126Z,71.8
2017-09-19T06:31:46.529Z,71.8
2017-09-19T06:32:56.555Z,71.8
2017-09-19T06:34:06.915Z,72.08
2017-09-19T06:35:17.238Z,72.18
2017-09-19T06:36:27.580Z,71.42
2017-09-19T06:37:37.612Z,71.7
2017-09-19T06:38:47.629Z,71.32
2017-09-19T06:39:57.980Z,71.61
2017-09-19T06:41:10.380Z,71.42
2017-09-19T06:42:20.416Z,71.22
2017-09-19T06:43:30.822Z,71.42
2017-09-19T06:44:40.532Z,71.32
2017-09-19T06:45:50.864Z,71.51
2017-09-19T06:47:01.223Z,71.61
2017-09-19T06:48:11.599Z,71.03
2017-09-19T06:49:21.934Z,71.22
2017-09-19T06:50:32.275Z,71.22
2017-09-19T06:51:42.313Z,71.51
2017-09-19T06:52:52.336Z,71.51
2017-09-19T06:54:03.403Z,71.03
2017-09-19T06:55:13.154Z,71.51
2017-09-19T06:56:23.517Z,71.22
2017-09-19T06:57:33.852Z,71.42
2017-09-19T06:58:43.895Z,71.42
2017-09-19T06:59:53.593Z,71.51
2017-09-19T07:01:03.936Z,71.42
2017-09-19T07:02:14.276Z,71.7
2017-09-19T07:03:24.612Z,71.45
2017-09-19T07:04:39.647Z,71.36
2017-09-19T07:05:49.981Z,71.36
2017-09-19T07:07:00.334Z,71.32
2017-09-19T07:08:10.354Z,70.87
2017-09-19T07:09:20.700Z,71.07
2017-09-19T07:10:30.398Z,71.07
2017-09-19T07:11:40.780Z,71.07
2017-09-19T07:12:51.132Z,71.16
2017-09-19T07:14:01.202Z,71.07
2017-09-19T07:15:11.587Z,71.26
2017-09-19T07:16:21.946Z,71.26
2017-09-19T07:17:32.302Z,71.07
2017-09-19T07:18:42.407Z,70.87
2017-09-19T07:19:52.497Z,70.87
2017-09-19T07:21:02.934Z,71.16
2017-09-19T07:22:13.275Z,71.07
2017-09-19T07:23:23.302Z,70.87
2017-09-19T07:24:33.339Z,71.16
2017-09-19T07:25:43.409Z,71.16
2017-09-19T07:26:53.767Z,70.97
2017-09-19T07:28:04.109Z,70.91
2017-09-19T07:29:14.135Z,71.01
2017-09-19T07:30:24.473Z,71.2
2017-09-19T07:31:34.505Z,71.2
2017-09-19T07:32:44.532Z,70.91
2017-09-19T07:33:54.914Z,71.01
2017-09-19T07:35:04.939Z,71.01
2017-09-19T07:36:15.276Z,71.2
2017-09-19T07:37:25.657Z,71.01
2017-09-19T07:38:35.993Z,71.01
2017-09-19T07:39:46.386Z,70.91
2017-09-19T07:40:56.414Z,71.11
2017-09-19T07:42:06.759Z,71.01
2017-09-19T07:43:16.461Z,71.01
2017-09-19T07:44:26.806Z,71.11
2017-09-19T07:45:37.145Z,70.62
2017-09-19T07:46:46.849Z,70.53
2017-09-19T07:47:57.179Z,70.34
2017-09-19T07:49:07.264Z,70.15
2017-09-19T07:50:17.635Z,70.43
2017-09-19T07:51:27.997Z,70.53
2017-09-19T07:52:38.393Z,71.2
2017-09-19T07:53:48.739Z,71.2
2017-09-19T07:54:59.075Z,71.2
2017-09-19T07:56:09.417Z,70.91
2017-09-19T07:57:19.447Z,71.58
2017-09-19T07:58:29.209Z,71.3
2017-09-19T07:59:39.243Z,71.39
2017-09-19T08:00:49.267Z,71.16
2017-09-19T08:01:59.306Z,71.36
2017-09-19T08:03:09.643Z,71.45
2017-09-19T08:04:19.663Z,71.55
2017-09-19T08:05:30.016Z,71.36
2017-09-19T08:06:39.733Z,71.16
2017-09-19T08:07:50.078Z,71.55
2017-09-19T08:09:00.103Z,71.11
2017-09-19T08:10:10.131Z,71.48
2017-09-19T08:11:20.471Z,71.01
2017-09-19T08:12:30.816Z,71.01
2017-09-19T08:13:41.138Z,71.2
2017-09-19T08:14:51.155Z,71.2
2017-09-19T08:16:01.544Z,70.91
2017-09-19T08:17:11.925Z,70.72
2017-09-19T08:18:22.279Z,71.11
2017-09-19T08:19:31.983Z,71.2
2017-09-19T08:20:41.998Z,70.43
2017-09-19T08:21:52.064Z,70.43
2017-09-19T08:23:02.094Z,70.66
2017-09-19T08:24:12.443Z,70.18
2017-09-19T08:25:22.802Z,69.89
2017-09-19T08:26:33.144Z,69.51
2017-09-19T08:27:43.158Z,69.89
2017-09-19T08:28:53.506Z,70.21
2017-09-19T08:30:03.521Z,69.93
2017-09-19T08:31:13.220Z,69.64
2017-09-19T08:32:23.620Z,69.54
2017-09-19T08:33:33.649Z,69.54
2017-09-19T08:34:43.987Z,69.54
2017-09-19T08:35:54.332Z,69.74
2017-09-19T08:37:06.875Z,70.03
2017-09-19T08:38:16.580Z,69.77
2017-09-19T08:39:27.000Z,69.58
2017-09-19T08:40:37.349Z,69.87
2017-09-19T08:41:47.700Z,69.23
2017-09-19T08:42:58.048Z,69.42
2017-09-19T08:44:08.397Z,69.52
2017-09-19T08:45:18.796Z,69.52
2017-09-19T08:46:31.850Z,69.13
2017-09-19T08:47:42.184Z,69.62
2017-09-19T08:48:54.945Z,69.81
2017-09-19T08:50:05.313Z,70.15
2017-09-19T08:51:15.655Z,69.96
2017-09-19T08:52:25.694Z,70.44
2017-09-19T08:53:36.034Z,70.06
2017-09-19T08:54:46.388Z,70.15
2017-09-19T08:55:56.097Z,69.77
2017-09-19T08:57:06.471Z,70.25
2017-09-19T08:58:16.800Z,70.15
2017-09-19T08:59:26.841Z,70.06
2017-09-19T09:00:37.188Z,70.25
2017-09-19T09:01:47.536Z,70.06
2017-09-19T09:02:57.938Z,70.15
2017-09-19T09:04:07.977Z,70.54
2017-09-19T09:05:18.320Z,70.44
2017-09-19T09:06:28.037Z,70.44
2017-09-19T09:07:38.373Z,70.35
2017-09-19T09:08:48.756Z,69.87
2017-09-19T09:09:59.092Z,70.06
2017-09-19T09:11:09.439Z,69.77
2017-09-19T09:12:19.793Z,70.25
2017-09-19T09:13:30.168Z,70.54
2017-09-19T09:14:40.509Z,70.44
2017-09-19T09:15:50.891Z,70.35
2017-09-19T09:17:01.258Z,70.54
2017-09-19T09:18:11.299Z,70.73
2017-09-19T09:19:20.702Z,70.44
2017-09-19T09:20:31.043Z,70.83
2017-09-19T09:21:41.065Z,70.89
2017-09-19T09:22:51.415Z,70.5
2017-09-19T09:24:01.769Z,70.73
2017-09-19T09:25:11.476Z,69.77
2017-09-19T09:26:21.883Z,69.87
2017-09-19T09:27:32.224Z,69.42
2017-09-19T09:28:42.541Z,69.42
2017-09-19T09:29:52.882Z,69.17
2017-09-19T09:31:02.925Z,68.79
2017-09-19T09:32:13.275Z,68.5
2017-09-19T09:33:23.612Z,69.17
2017-09-19T09:34:33.630Z,68.98
2017-09-19T09:35:44.010Z,69.93
2017-09-19T09:36:54.030Z,70.19
2017-09-19T09:38:04.421Z,70.29
2017-09-19T09:39:14.767Z,70.48
2017-09-19T09:40:24.788Z,70.38
2017-09-19T09:41:35.131Z,70.44
2017-09-19T09:42:45.482Z,70.64
2017-09-19T09:43:55.879Z,71.31
2017-09-19T09:45:05.895Z,70.64
2017-09-19T09:46:16.275Z,70.44
2017-09-19T09:47:26.013Z,70.35
2017-09-19T09:48:36.031Z,70.25
2017-09-19T09:49:49.084Z,69.9
2017-09-19T09:50:58.804Z,69.71
2017-09-19T09:52:09.167Z,69.65
2017-09-19T09:53:19.507Z,68.59
2017-09-19T09:54:29.884Z,68.73
2017-09-19T09:55:39.901Z,68.44
2017-09-19T09:56:50.238Z,68.73
2017-09-19T09:58:00.971Z,68.91
2017-09-19T09:59:11.331Z,68.73
2017-09-19T10:00:21.073Z,68.73
2017-09-19T10:01:48.895Z,68.44
2017-09-19T10:02:59.282Z,69.3
2017-09-19T10:04:09.311Z,69.4
2017-09-19T10:05:19.690Z,69.2
2017-09-19T10:06:32.869Z,69.59
2017-09-19T10:07:42.909Z,70.07
2017-09-19T10:08:52.945Z,69.84
2017-09-19T10:10:03.310Z,70.03
2017-09-19T10:11:13.725Z,69.93
2017-09-19T10:12:24.081Z,69.84
2017-09-19T10:13:34.445Z,70.23
2017-09-19T10:14:44.809Z,70.23
2017-09-19T10:15:55.156Z,70.23
2017-09-19T10:17:05.550Z,69.93
2017-09-19T10:18:15.941Z,70.42
2017-09-19T10:19:26.313Z,69.59
2017-09-19T10:20:36.334Z,70.17
2017-09-19T10:21:46.372Z,69.59
2017-09-19T10:22:56.460Z,69.78
2017-09-19T10:24:06.825Z,69.97
2017-09-19T10:25:17.206Z,70.07
2017-09-19T10:26:27.557Z,70.32
2017-09-19T10:27:37.939Z,70.26
2017-09-19T10:28:48.336Z,70.17
2017-09-19T10:29:58.363Z,70.36
2017-09-19T10:31:08.387Z,70.17
2017-09-19T10:32:21.363Z,70.26
2017-09-19T10:33:31.774Z,70.42
2017-09-19T10:34:41.826Z,69.87
2017-09-19T10:35:53.841Z,70.07
2017-09-19T10:37:04.199Z,69.68
2017-09-19T10:38:14.569Z,69.87
2017-09-19T10:39:24.652Z,69.97
2017-09-19T10:40:35.062Z,69.97
2017-09-19T10:41:45.417Z,70.07
2017-09-19T10:42:55.775Z,70.17
2017-09-19T10:44:05.490Z,70.51
2017-09-19T10:45:15.523Z,70.61
2017-09-19T10:46:25.569Z,70.7
2017-09-19T10:47:35.938Z,71.28
2017-09-19T10:48:46.318Z,71.37
2017-09-19T10:49:56.653Z,71.37
2017-09-19T10:51:07.038Z,70.51
2017-09-19T10:52:17.061Z,70.96
2017-09-19T10:53:27.435Z,70.51
2017-09-19T10:54:37.146Z,70.61
2017-09-19T10:55:46.869Z,70.9
2017-09-19T10:56:56.955Z,70.42
2017-09-19T10:58:07.335Z,70.23
2017-09-19T10:59:19.513Z,70.03
2017-09-19T11:00:32.360Z,70.13
2017-09-19T11:01:42.386Z,70.13
2017-09-19T11:02:52.453Z,69.78
2017-09-19T11:04:02.808Z,69.3
2017-09-19T11:05:13.141Z,69.59
2017-09-19T11:06:23.188Z,68.85
2017-09-19T11:07:32.902Z,68.66
2017-09-19T11:08:42.693Z,68.98
2017-09-19T11:09:53.062Z,68.51
2017-09-19T11:11:03.396Z,68.51
2017-09-19T11:12:13.778Z,68.44
2017-09-19T11:13:23.878Z,68.73
2017-09-19T11:14:34.122Z,68.35
2017-09-19T11:15:44.474Z,68.92
2017-09-19T11:16:54.534Z,68.57
2017-09-19T11:18:04.904Z,68.76
2017-09-19T11:19:15.273Z,68.67
2017-09-19T11:20:25.701Z,68.67
2017-09-19T11:21:36.088Z,68.57
2017-09-19T11:22:45.821Z,68.67
2017-09-19T11:23:55.843Z,68.09
2017-09-19T11:25:05.946Z,67.55
2017-09-19T11:26:16.365Z,67.83
2017-09-19T11:27:26.722Z,67.39
2017-09-19T11:28:36.768Z,67.87
2017-09-19T11:29:46.820Z,67.61
2017-09-19T11:30:57.197Z,67.81
2017-09-19T11:32:08.403Z,68
2017-09-19T11:33:18.433Z,68.19
2017-09-19T11:34:28.454Z,68.64
2017-09-19T11:35:38.823Z,68.93
2017-09-19T11:36:49.186Z,68.84
2017-09-19T11:37:59.306Z,69.38
2017-09-19T11:39:09.670Z,69.38
2017-09-19T11:40:20.014Z,69.95
2017-09-19T11:41:30.352Z,70.3
2017-09-19T11:42:40.733Z,70.5
2017-09-19T11:43:51.187Z,70.46
2017-09-19T11:45:01.537Z,71.14
2017-09-19T11:46:11.888Z,71.39
2017-09-19T11:47:21.915Z,71.73
2017-09-19T11:48:32.267Z,71.55
2017-09-19T11:49:42.313Z,72.02
2017-09-19T11:50:52.663Z,71.45
2017-09-19T11:52:02.713Z,71.83
2017-09-19T11:53:13.081Z,71.83
2017-09-19T11:54:23.441Z,71.89
2017-09-19T11:55:33.856Z,71.22
2017-09-19T11:56:44.217Z,71.41
2017-09-19T11:57:54.584Z,70.45
2017-09-19T11:59:04.959Z,70.45
2017-09-19T12:00:15.327Z,70.64
2017-09-19T12:01:25.091Z,70.64
2017-09-19T12:02:35.433Z,70.64
2017-09-19T12:03:45.143Z,70.64
2017-09-19T12:04:55.495Z,71.12
2017-09-19T12:06:05.849Z,71.12
2017-09-19T12:07:15.627Z,70.99
2017-09-19T12:08:25.969Z,71.09
2017-09-19T12:09:36.332Z,71.28
2017-09-19T12:10:46.702Z,71.28
2017-09-19T12:11:56.769Z,71.37
2017-09-19T12:13:06.853Z,71.19
2017-09-19T12:14:16.892Z,71.28
2017-09-19T12:15:27.260Z,71.28
2017-09-19T12:16:37.615Z,71.09
2017-09-19T12:17:47.970Z,70.51
2017-09-19T12:18:58.327Z,70.51
2017-09-19T12:20:08.699Z,70.42
2017-09-19T12:21:19.070Z,70.61
2017-09-19T12:22:29.423Z,70.55
2017-09-19T12:23:39.767Z,70.61
2017-09-19T12:24:49.480Z,70.9
2017-09-19T12:25:59.197Z,70.84
2017-09-19T12:27:09.555Z,70.9
2017-09-19T12:28:19.269Z,71.66
2017-09-19T12:29:29.624Z,71.66
2017-09-19T12:30:40.059Z,71.28
2017-09-19T12:31:52.770Z,71.44
2017-09-19T12:33:03.129Z,71.53
2017-09-19T12:34:13.148Z,71.63
2017-09-19T12:35:23.509Z,71.05
2017-09-19T12:36:33.858Z,71.37
2017-09-19T12:37:44.203Z,71.28
2017-09-19T12:38:54.556Z,71.47
2017-09-19T12:40:04.908Z,70.8
2017-09-19T12:41:15.257Z,70.61
2017-09-19T12:42:25.339Z,70.7
2017-09-19T12:43:35.700Z,71.09
2017-09-19T12:44:46.074Z,71.19
2017-09-19T12:45:56.120Z,70.99
2017-09-19T12:47:06.503Z,70.99
2017-09-19T12:48:16.851Z,71.37
2017-09-19T12:49:27.184Z,71.28
2017-09-19T12:50:37.541Z,70.7
2017-09-19T12:51:47.892Z,70.42
2017-09-19T12:52:58.237Z,70.93
2017-09-19T12:54:08.662Z,70.55
2017-09-19T12:55:19.029Z,70.84
2017-09-19T12:56:29.077Z,69.97
2017-09-19T12:57:39.422Z,70.07
2017-09-19T12:58:49.965Z,70.36
2017-09-19T13:00:00.002Z,70.74
2017-09-19T13:01:11.493Z,70.39
2017-09-19T13:02:23.933Z,70.36
2017-09-19T13:03:36.063Z,70.58
2017-09-19T13:04:46.099Z,70.93
2017-09-19T13:05:56.444Z,70.55
2017-09-19T13:07:06.813Z,70.84
2017-09-19T13:08:17.172Z,71.41
2017-09-19T13:09:27.519Z,71.51
2017-09-19T13:10:37.876Z,71.22
2017-09-19T13:11:48.252Z,71.7
2017-09-19T13:13:00.878Z,71.8
2017-09-19T13:14:11.252Z,71.51
2017-09-19T13:15:21.615Z,71.57
2017-09-19T13:16:32.037Z,71.66
2017-09-19T13:17:42.401Z,71.57
2017-09-19T13:18:52.769Z,71.86
2017-09-19T13:20:03.118Z,71.66
2017-09-19T13:21:13.463Z,71.31
2017-09-19T13:22:23.824Z,71.31
2017-09-19T13:23:33.570Z,71.47
2017-09-19T13:24:43.307Z,71.8
2017-09-19T13:25:53.350Z,71.37
2017-09-19T13:27:03.071Z,71.31
2017-09-19T13:28:13.437Z,71.31
2017-09-19T13:29:23.836Z,71.22
2017-09-19T13:30:33.551Z,71.51
2017-09-19T13:31:43.968Z,71.41
2017-09-19T13:32:55.159Z,71.31
2017-09-19T13:34:05.524Z,70.74
2017-09-19T13:35:15.929Z,71.16
2017-09-19T13:36:26.270Z,71.41
2017-09-19T13:37:36.321Z,71.12
2017-09-19T13:38:48.779Z,71.22
2017-09-19T13:39:59.131Z,71.89
2017-09-19T13:41:10.866Z,71.8
2017-09-19T13:42:21.212Z,71.61
2017-09-19T13:43:31.232Z,71.61
2017-09-19T13:44:41.575Z,71.41
2017-09-19T13:45:51.919Z,71.51
2017-09-19T13:47:01.987Z,71.61
2017-09-19T13:48:12.063Z,71.61
2017-09-19T13:49:22.413Z,71.51
2017-09-19T13:50:32.452Z,71.7
2017-09-19T13:51:42.793Z,71.76
2017-09-19T13:52:53.149Z,71.7
2017-09-19T13:54:03.503Z,71.57
2017-09-19T13:55:13.867Z,71.8
2017-09-19T13:56:24.216Z,71.51
2017-09-19T13:57:34.257Z,71.8
2017-09-19T13:58:44.343Z,71.41
2017-09-19T13:59:54.706Z,71.41
2017-09-19T14:01:05.038Z,71.31
2017-09-19T14:02:15.401Z,71.41
2017-09-19T14:03:25.434Z,71.22
2017-09-19T14:04:35.822Z,71.7
2017-09-19T14:05:45.864Z,71.51
2017-09-19T14:06:56.218Z,71.61
2017-09-19T14:08:06.584Z,71.8
2017-09-19T14:09:17.407Z,71.66
2017-09-19T14:10:27.807Z,71.47
2017-09-19T14:11:38.161Z,71.7
2017-09-19T14:12:48.845Z,72.53
2017-09-19T14:13:58.888Z,72.33
2017-09-19T14:15:09.252Z,72.14
2017-09-19T14:16:19.644Z,72.43
2017-09-19T14:17:29.989Z,72.33
2017-09-19T14:18:40.345Z,72.11
2017-09-19T14:19:50.402Z,72.39
2017-09-19T14:21:00.790Z,72.78
2017-09-19T14:22:10.869Z,72.78
2017-09-19T14:23:21.237Z,72.78
2017-09-19T14:24:33.903Z,72.88
2017-09-19T14:25:43.947Z,72.59
2017-09-19T14:26:54.296Z,72.59
2017-09-19T14:28:04.646Z,72.59
2017-09-19T14:29:14.686Z,72.55
2017-09-19T14:30:25.050Z,72.64
2017-09-19T14:31:35.400Z,72.84
2017-09-19T14:32:45.745Z,72.36
2017-09-19T14:33:55.830Z,72.74
2017-09-19T14:35:06.184Z,72.64
2017-09-19T14:36:16.542Z,72.64
2017-09-19T14:37:26.955Z,72.55
2017-09-19T14:38:36.989Z,72.64
2017-09-19T14:39:47.333Z,72.94
2017-09-19T14:40:57.683Z,72.52
2017-09-19T14:42:08.050Z,72.9
2017-09-19T14:43:18.393Z,72.99
2017-09-19T14:44:28.787Z,72.99
2017-09-19T14:45:39.214Z,73.09
2017-09-19T14:46:49.616Z,73.09
2017-09-19T14:47:59.337Z,73.28
2017-09-19T14:49:09.712Z,72.99
2017-09-19T14:50:20.092Z,72.9
2017-09-19T14:51:30.443Z,72.71
2017-09-19T14:52:40.800Z,72.96
2017-09-19T14:53:50.846Z,72.8
2017-09-19T14:55:01.197Z,72.86
2017-09-19T14:56:11.563Z,72.71
2017-09-19T14:57:21.988Z,72.86
2017-09-19T14:58:32.070Z,73.24
2017-09-19T14:59:42.436Z,72.58
2017-09-19T15:00:52.803Z,73.34
2017-09-19T15:02:02.840Z,73.15
2017-09-19T15:03:12.884Z,73.24
2017-09-19T15:04:22.932Z,73.34
2017-09-19T15:05:34.585Z,73.54
2017-09-19T15:06:45.016Z,73.34
2017-09-19T15:07:55.395Z,73.44
2017-09-19T15:09:05.751Z,73.4
2017-09-19T15:10:16.116Z,73.3
2017-09-19T15:11:26.475Z,73.3
2017-09-19T15:12:36.521Z,73.02
2017-09-19T15:13:46.887Z,73.02
2017-09-19T15:14:58.429Z,73.11
2017-09-19T15:16:08.768Z,73.02
2017-09-19T15:17:19.105Z,73.11
2017-09-19T15:18:29.458Z,73.27
2017-09-19T15:19:39.807Z,73.27
2017-09-19T15:20:49.592Z,72.98
2017-09-19T15:21:59.629Z,73.27
2017-09-19T15:23:09.665Z,72.69
2017-09-19T15:24:20.037Z,73.27
2017-09-19T15:25:30.413Z,73.27
2017-09-19T15:26:40.859Z,73.27
2017-09-19T15:27:50.898Z,73.27
2017-09-19T15:29:01.250Z,73.46
2017-09-19T15:30:11.606Z,73.36
2017-09-19T15:31:21.953Z,73.17
2017-09-19T15:32:32.387Z,73.17
2017-09-19T15:33:42.733Z,73.17
2017-09-19T15:34:52.785Z,73.08
2017-09-19T15:36:03.162Z,73.17
2017-09-19T15:37:13.190Z,72.5
2017-09-19T15:38:23.229Z,72.6
2017-09-19T15:39:33.597Z,72.69
2017-09-19T15:40:43.959Z,72.79